sensor_id;sensor_type;location;lat;lon;timestamp;P1;P2;P0
23240;PMS7003;11789;53.482;9.862;2023-04-25T00:01:04;8.75;7.00;3.75
23240;PMS7003;11789;53.482;9.862;2023-04-25T00:03:30;6.50;6.00;5.00
23240;PMS7003;11789;53.482;9.862;2023-04-25T00:05:57;7.25;7.25;6.00
23240;PMS7003;11789;53.482;9.862;2023-04-25T00:08:27;8.75;8.75;6.00
23240;PMS7003;11789;53.482;9.862;2023-04-25T00:10:52;10.25;6.75;5.00
23240;PMS7003;11789;53.482;9.862;2023-04-25T00:13:18;6.75;6.00;5.00
23240;PMS7003;11789;53.482;9.862;2023-04-25T00:15:44;6.00;6.00;5.00
23240;PMS7003;11789;53.482;9.862;2023-04-25T00:18:16;5.25;5.25;4.25
23240;PMS7003;11789;53.482;9.862;2023-04-25T00:20:43;7.00;7.00;5.00
23240;PMS7003;11789;53.482;9.862;2023-04-25T00:23:12;8.75;7.00;5.00
23240;PMS7003;11789;53.482;9.862;2023-04-25T00:25:43;10.75;8.50;5.00
23240;PMS7003;11789;53.482;9.862;2023-04-25T00:28:09;7.00;5.50;4.00
23240;PMS7003;11789;53.482;9.862;2023-04-25T00:30:36;11.50;7.00;5.00
23240;PMS7003;11789;53.482;9.862;2023-04-25T00:33:01;13.00;7.00;5.50
23240;PMS7003;11789;53.482;9.862;2023-04-25T00:35:27;12.00;7.00;5.00
23240;PMS7003;11789;53.482;9.862;2023-04-25T00:37:52;7.00;7.00;4.75
23240;PMS7003;11789;53.482;9.862;2023-04-25T00:40:19;12.25;7.25;5.25
23240;PMS7003;11789;53.482;9.862;2023-04-25T00:42:44;13.00;6.00;4.00
23240;PMS7003;11789;53.482;9.862;2023-04-25T00:45:12;12.00;7.00;4.00
23240;PMS7003;11789;53.482;9.862;2023-04-25T00:47:41;7.25;6.25;4.00
23240;PMS7003;11789;53.482;9.862;2023-04-25T00:50:07;11.75;8.00;4.75
23240;PMS7003;11789;53.482;9.862;2023-04-25T00:52:34;9.75;6.75;4.25
23240;PMS7003;11789;53.482;9.862;2023-04-25T00:55:00;6.50;5.00;4.00
23240;PMS7003;11789;53.482;9.862;2023-04-25T00:57:26;11.50;5.75;3.75
23240;PMS7003;11789;53.482;9.862;2023-04-25T00:59:52;6.75;5.75;4.00
23240;PMS7003;11789;53.482;9.862;2023-04-25T01:02:18;7.50;6.00;4.00
23240;PMS7003;11789;53.482;9.862;2023-04-25T01:04:45;11.75;8.25;5.00
23240;PMS7003;11789;53.482;9.862;2023-04-25T01:07:11;4.50;4.50;3.50
23240;PMS7003;11789;53.482;9.862;2023-04-25T01:09:36;5.00;5.00;4.00
23240;PMS7003;11789;53.482;9.862;2023-04-25T01:12:02;9.00;7.00;5.00
23240;PMS7003;11789;53.482;9.862;2023-04-25T01:14:28;10.00;7.75;5.00
23240;PMS7003;11789;53.482;9.862;2023-04-25T01:16:58;12.25;9.00;6.00
23240;PMS7003;11789;53.482;9.862;2023-04-25T01:19:23;7.25;7.25;4.50
23240;PMS7003;11789;53.482;9.862;2023-04-25T01:21:49;10.00;6.00;4.00
23240;PMS7003;11789;53.482;9.862;2023-04-25T01:24:15;14.25;6.00;4.00
23240;PMS7003;11789;53.482;9.862;2023-04-25T01:26:41;10.00;8.75;5.00
23240;PMS7003;11789;53.482;9.862;2023-04-25T01:29:10;11.50;4.00;3.00
23240;PMS7003;11789;53.482;9.862;2023-04-25T01:31:35;10.50;8.25;4.00
23240;PMS7003;11789;53.482;9.862;2023-04-25T01:34:02;10.75;6.50;4.00
23240;PMS7003;11789;53.482;9.862;2023-04-25T01:36:27;8.50;5.00;4.00
23240;PMS7003;11789;53.482;9.862;2023-04-25T01:38:53;10.00;6.50;4.75
23240;PMS7003;11789;53.482;9.862;2023-04-25T01:41:18;6.50;6.50;4.00
23240;PMS7003;11789;53.482;9.862;2023-04-25T01:43:45;11.00;7.00;4.00
23240;PMS7003;11789;53.482;9.862;2023-04-25T01:46:13;13.25;3.75;3.00
23240;PMS7003;11789;53.482;9.862;2023-04-25T01:48:39;12.25;7.50;3.75
23240;PMS7003;11789;53.482;9.862;2023-04-25T01:51:05;6.50;5.75;4.00
23240;PMS7003;11789;53.482;9.862;2023-04-25T01:53:30;7.50;6.00;3.75
23240;PMS7003;11789;53.482;9.862;2023-04-25T01:55:56;10.00;5.75;3.50
23240;PMS7003;11789;53.482;9.862;2023-04-25T01:58:21;11.50;7.50;4.00
23240;PMS7003;11789;53.482;9.862;2023-04-25T02:00:47;10.50;5.75;4.00
23240;PMS7003;11789;53.482;9.862;2023-04-25T02:03:12;13.50;8.00;5.00
23240;PMS7003;11789;53.482;9.862;2023-04-25T02:05:38;9.25;7.00;4.00
23240;PMS7003;11789;53.482;9.862;2023-04-25T02:08:05;8.75;5.50;4.50
23240;PMS7003;11789;53.482;9.862;2023-04-25T02:10:32;9.00;5.25;3.75
23240;PMS7003;11789;53.482;9.862;2023-04-25T02:12:58;8.00;7.00;3.75
23240;PMS7003;11789;53.482;9.862;2023-04-25T02:15:23;5.75;5.75;4.25
23240;PMS7003;11789;53.482;9.862;2023-04-25T02:17:49;10.75;4.25;3.00
23240;PMS7003;11789;53.482;9.862;2023-04-25T02:20:14;6.00;5.00;4.00
23240;PMS7003;11789;53.482;9.862;2023-04-25T02:22:41;8.00;6.25;4.00
23240;PMS7003;11789;53.482;9.862;2023-04-25T02:25:07;11.00;7.00;5.00
23240;PMS7003;11789;53.482;9.862;2023-04-25T02:27:34;7.00;5.00;5.00
23240;PMS7003;11789;53.482;9.862;2023-04-25T02:30:00;11.00;5.00;3.50
23240;PMS7003;11789;53.482;9.862;2023-04-25T02:32:25;10.75;6.50;4.00
23240;PMS7003;11789;53.482;9.862;2023-04-25T02:34:52;14.75;6.00;3.00
23240;PMS7003;11789;53.482;9.862;2023-04-25T02:37:18;10.25;7.00;4.50
23240;PMS7003;11789;53.482;9.862;2023-04-25T02:39:44;9.75;7.00;4.00
23240;PMS7003;11789;53.482;9.862;2023-04-25T02:42:09;10.00;5.50;3.00
23240;PMS7003;11789;53.482;9.862;2023-04-25T02:44:35;10.75;8.50;4.00
23240;PMS7003;11789;53.482;9.862;2023-04-25T02:47:01;6.00;5.25;3.25
23240;PMS7003;11789;53.482;9.862;2023-04-25T02:49:26;11.75;7.25;5.00
23240;PMS7003;11789;53.482;9.862;2023-04-25T02:51:52;5.50;4.25;2.00
23240;PMS7003;11789;53.482;9.862;2023-04-25T02:54:17;13.75;7.50;4.00
23240;PMS7003;11789;53.482;9.862;2023-04-25T02:56:43;5.75;5.25;3.00
23240;PMS7003;11789;53.482;9.862;2023-04-25T02:59:08;10.25;6.50;4.00
23240;PMS7003;11789;53.482;9.862;2023-04-25T03:01:33;8.25;5.75;4.00
23240;PMS7003;11789;53.482;9.862;2023-04-25T03:03:59;12.50;5.00;3.75
23240;PMS7003;11789;53.482;9.862;2023-04-25T03:06:24;14.75;7.25;4.00
23240;PMS7003;11789;53.482;9.862;2023-04-25T03:08:50;6.00;4.50;3.50
23240;PMS7003;11789;53.482;9.862;2023-04-25T03:11:15;10.00;9.50;5.00
23240;PMS7003;11789;53.482;9.862;2023-04-25T03:13:40;13.50;6.00;4.00
23240;PMS7003;11789;53.482;9.862;2023-04-25T03:16:06;6.50;6.50;4.00
23240;PMS7003;11789;53.482;9.862;2023-04-25T03:18:31;10.00;7.75;4.00
23240;PMS7003;11789;53.482;9.862;2023-04-25T03:20:57;13.75;7.00;4.00
23240;PMS7003;11789;53.482;9.862;2023-04-25T03:23:23;9.75;7.25;4.50
23240;PMS7003;11789;53.482;9.862;2023-04-25T03:25:48;9.25;6.00;4.00
23240;PMS7003;11789;53.482;9.862;2023-04-25T03:28:14;10.00;6.00;3.00
23240;PMS7003;11789;53.482;9.862;2023-04-25T03:30:39;10.75;6.00;4.00
23240;PMS7003;11789;53.482;9.862;2023-04-25T03:33:04;9.25;4.75;3.00
23240;PMS7003;11789;53.482;9.862;2023-04-25T03:35:30;8.50;6.00;4.00
23240;PMS7003;11789;53.482;9.862;2023-04-25T03:37:55;11.00;5.50;3.00
23240;PMS7003;11789;53.482;9.862;2023-04-25T03:40:21;9.25;5.25;3.00
23240;PMS7003;11789;53.482;9.862;2023-04-25T03:42:46;11.25;7.50;4.00
23240;PMS7003;11789;53.482;9.862;2023-04-25T03:45:12;10.75;5.50;3.00
23240;PMS7003;11789;53.482;9.862;2023-04-25T03:47:37;8.50;6.00;4.00
23240;PMS7003;11789;53.482;9.862;2023-04-25T03:50:03;10.50;6.75;3.00
23240;PMS7003;11789;53.482;9.862;2023-04-25T03:52:28;8.75;4.75;2.50
23240;PMS7003;11789;53.482;9.862;2023-04-25T03:54:54;8.50;6.00;3.50
23240;PMS7003;11789;53.482;9.862;2023-04-25T03:57:19;4.75;4.75;2.00
23240;PMS7003;11789;53.482;9.862;2023-04-25T03:59:45;7.25;5.00;3.00
23240;PMS7003;11789;53.482;9.862;2023-04-25T04:02:11;13.50;4.75;3.00
23240;PMS7003;11789;53.482;9.862;2023-04-25T04:04:36;5.50;3.50;1.00
23240;PMS7003;11789;53.482;9.862;2023-04-25T04:07:02;8.25;4.00;3.00
23240;PMS7003;11789;53.482;9.862;2023-04-25T04:09:28;3.00;3.00;2.00
23240;PMS7003;11789;53.482;9.862;2023-04-25T04:11:53;7.00;4.50;3.00
23240;PMS7003;11789;53.482;9.862;2023-04-25T04:14:18;4.00;2.00;2.00
23240;PMS7003;11789;53.482;9.862;2023-04-25T04:16:44;10.50;4.50;3.75
23240;PMS7003;11789;53.482;9.862;2023-04-25T04:19:10;8.25;4.25;3.00
23240;PMS7003;11789;53.482;9.862;2023-04-25T04:21:35;7.75;4.00;3.00
23240;PMS7003;11789;53.482;9.862;2023-04-25T04:24:01;8.00;5.50;3.00
23240;PMS7003;11789;53.482;9.862;2023-04-25T04:26:26;5.25;4.25;3.00
23240;PMS7003;11789;53.482;9.862;2023-04-25T04:28:52;8.50;4.50;3.75
23240;PMS7003;11789;53.482;9.862;2023-04-25T04:31:22;6.75;4.50;3.00
23240;PMS7003;11789;53.482;9.862;2023-04-25T04:33:49;10.25;8.00;4.00
23240;PMS7003;11789;53.482;9.862;2023-04-25T04:36:14;4.50;3.00;2.75
23240;PMS7003;11789;53.482;9.862;2023-04-25T04:38:40;6.00;4.00;2.75
23240;PMS7003;11789;53.482;9.862;2023-04-25T04:41:07;5.75;4.75;3.00
23240;PMS7003;11789;53.482;9.862;2023-04-25T04:43:33;9.00;5.50;4.00
23240;PMS7003;11789;53.482;9.862;2023-04-25T04:46:00;8.75;4.00;2.00
23240;PMS7003;11789;53.482;9.862;2023-04-25T04:48:25;6.25;4.25;3.00
23240;PMS7003;11789;53.482;9.862;2023-04-25T04:50:51;6.50;4.00;3.00
23240;PMS7003;11789;53.482;9.862;2023-04-25T04:53:17;4.25;2.75;1.00
23240;PMS7003;11789;53.482;9.862;2023-04-25T04:55:43;4.25;3.50;2.25
23240;PMS7003;11789;53.482;9.862;2023-04-25T04:58:08;10.25;5.75;3.00
23240;PMS7003;11789;53.482;9.862;2023-04-25T05:00:34;4.50;2.00;1.00
23240;PMS7003;11789;53.482;9.862;2023-04-25T05:02:59;5.75;4.75;3.00
23240;PMS7003;11789;53.482;9.862;2023-04-25T05:05:25;5.75;4.00;2.50
23240;PMS7003;11789;53.482;9.862;2023-04-25T05:07:50;5.75;4.00;2.75
23240;PMS7003;11789;53.482;9.862;2023-04-25T05:10:17;4.75;3.25;2.00
23240;PMS7003;11789;53.482;9.862;2023-04-25T05:12:43;6.75;5.00;3.00
23240;PMS7003;11789;53.482;9.862;2023-04-25T05:15:10;10.25;5.00;3.00
23240;PMS7003;11789;53.482;9.862;2023-04-25T05:17:35;5.00;5.00;4.00
23240;PMS7003;11789;53.482;9.862;2023-04-25T05:20:01;11.00;5.00;3.00
23240;PMS7003;11789;53.482;9.862;2023-04-25T05:22:27;6.00;4.75;2.25
23240;PMS7003;11789;53.482;9.862;2023-04-25T05:24:53;2.75;2.75;2.00
23240;PMS7003;11789;53.482;9.862;2023-04-25T05:27:18;4.75;3.75;2.75
23240;PMS7003;11789;53.482;9.862;2023-04-25T05:29:44;8.75;5.00;3.00
23240;PMS7003;11789;53.482;9.862;2023-04-25T05:32:10;6.00;4.50;3.00
23240;PMS7003;11789;53.482;9.862;2023-04-25T05:34:36;4.00;3.50;2.00
23240;PMS7003;11789;53.482;9.862;2023-04-25T05:37:01;4.25;3.50;2.00
23240;PMS7003;11789;53.482;9.862;2023-04-25T05:39:27;4.00;2.75;2.00
23240;PMS7003;11789;53.482;9.862;2023-04-25T05:41:52;3.00;3.00;1.75
23240;PMS7003;11789;53.482;9.862;2023-04-25T05:44:18;2.25;2.25;1.00
23240;PMS7003;11789;53.482;9.862;2023-04-25T05:46:44;11.25;3.00;2.00
23240;PMS7003;11789;53.482;9.862;2023-04-25T05:49:09;2.75;2.75;2.00
23240;PMS7003;11789;53.482;9.862;2023-04-25T05:51:34;4.00;3.00;2.00
23240;PMS7003;11789;53.482;9.862;2023-04-25T05:54:00;6.00;4.00;2.50
23240;PMS7003;11789;53.482;9.862;2023-04-25T05:56:26;4.25;4.25;3.00
23240;PMS7003;11789;53.482;9.862;2023-04-25T05:58:51;4.50;4.50;3.00
23240;PMS7003;11789;53.482;9.862;2023-04-25T06:01:17;7.25;3.00;2.00
23240;PMS7003;11789;53.482;9.862;2023-04-25T06:03:42;4.50;2.00;2.00
23240;PMS7003;11789;53.482;9.862;2023-04-25T06:06:08;5.75;4.00;1.75
23240;PMS7003;11789;53.482;9.862;2023-04-25T06:08:34;8.50;4.25;2.75
23240;PMS7003;11789;53.482;9.862;2023-04-25T06:10:59;7.00;5.00;3.00
23240;PMS7003;11789;53.482;9.862;2023-04-25T06:13:25;4.00;4.00;2.00
23240;PMS7003;11789;53.482;9.862;2023-04-25T06:15:51;9.00;3.75;2.75
23240;PMS7003;11789;53.482;9.862;2023-04-25T06:18:16;5.00;3.00;2.00
23240;PMS7003;11789;53.482;9.862;2023-04-25T06:20:42;5.00;5.00;3.00
23240;PMS7003;11789;53.482;9.862;2023-04-25T06:23:07;6.50;5.00;3.00
23240;PMS7003;11789;53.482;9.862;2023-04-25T06:25:36;5.50;5.00;2.75
23240;PMS7003;11789;53.482;9.862;2023-04-25T06:28:02;6.00;4.00;3.00
23240;PMS7003;11789;53.482;9.862;2023-04-25T06:30:27;4.50;4.50;3.25
23240;PMS7003;11789;53.482;9.862;2023-04-25T06:32:53;5.00;4.00;3.00
23240;PMS7003;11789;53.482;9.862;2023-04-25T06:35:19;2.75;2.75;2.00
23240;PMS7003;11789;53.482;9.862;2023-04-25T06:37:45;3.75;3.75;3.00
23240;PMS7003;11789;53.482;9.862;2023-04-25T06:40:10;5.00;3.75;2.00
23240;PMS7003;11789;53.482;9.862;2023-04-25T06:42:36;7.50;3.25;2.00
23240;PMS7003;11789;53.482;9.862;2023-04-25T06:45:01;5.75;4.00;2.00
23240;PMS7003;11789;53.482;9.862;2023-04-25T06:47:27;4.75;3.00;2.00
23240;PMS7003;11789;53.482;9.862;2023-04-25T06:49:53;7.75;3.00;2.25
23240;PMS7003;11789;53.482;9.862;2023-04-25T06:52:18;5.50;3.00;2.00
23240;PMS7003;11789;53.482;9.862;2023-04-25T06:54:44;5.75;4.50;2.75
23240;PMS7003;11789;53.482;9.862;2023-04-25T06:57:10;5.25;3.50;3.00
23240;PMS7003;11789;53.482;9.862;2023-04-25T06:59:36;3.25;3.25;2.75
23240;PMS7003;11789;53.482;9.862;2023-04-25T07:02:02;8.50;3.00;2.25
23240;PMS7003;11789;53.482;9.862;2023-04-25T07:04:28;3.00;2.50;2.00
23240;PMS7003;11789;53.482;9.862;2023-04-25T07:06:54;4.00;3.50;2.00
23240;PMS7003;11789;53.482;9.862;2023-04-25T07:09:20;5.75;4.25;2.25
23240;PMS7003;11789;53.482;9.862;2023-04-25T07:11:45;3.50;3.25;2.75
23240;PMS7003;11789;53.482;9.862;2023-04-25T07:14:11;4.75;4.00;3.00
23240;PMS7003;11789;53.482;9.862;2023-04-25T07:16:36;5.00;5.00;3.00
23240;PMS7003;11789;53.482;9.862;2023-04-25T07:19:02;7.00;4.75;2.00
23240;PMS7003;11789;53.482;9.862;2023-04-25T07:21:27;5.00;5.00;3.00
23240;PMS7003;11789;53.482;9.862;2023-04-25T07:23:53;6.50;4.00;2.00
23240;PMS7003;11789;53.482;9.862;2023-04-25T07:26:18;3.00;3.00;2.00
23240;PMS7003;11789;53.482;9.862;2023-04-25T07:28:43;5.00;3.50;2.00
23240;PMS7003;11789;53.482;9.862;2023-04-25T07:31:09;4.00;2.75;2.00
23240;PMS7003;11789;53.482;9.862;2023-04-25T07:33:35;2.75;2.75;2.00
23240;PMS7003;11789;53.482;9.862;2023-04-25T07:36:00;7.00;3.00;2.00
23240;PMS7003;11789;53.482;9.862;2023-04-25T07:38:26;4.75;3.00;1.75
23240;PMS7003;11789;53.482;9.862;2023-04-25T07:40:51;3.25;3.00;2.00
23240;PMS7003;11789;53.482;9.862;2023-04-25T07:43:17;2.00;2.00;1.00
23240;PMS7003;11789;53.482;9.862;2023-04-25T07:45:43;4.00;2.75;1.75
23240;PMS7003;11789;53.482;9.862;2023-04-25T07:48:11;2.25;1.75;1.00
23240;PMS7003;11789;53.482;9.862;2023-04-25T07:50:42;4.50;2.25;2.00
23240;PMS7003;11789;53.482;9.862;2023-04-25T07:53:08;2.00;1.00;1.00
23240;PMS7003;11789;53.482;9.862;2023-04-25T07:55:33;3.25;1.50;0.75
23240;PMS7003;11789;53.482;9.862;2023-04-25T07:57:59;2.25;0.50;0.25
23240;PMS7003;11789;53.482;9.862;2023-04-25T08:00:24;1.00;1.00;0.75
23240;PMS7003;11789;53.482;9.862;2023-04-25T08:02:50;3.00;1.75;0.00
23240;PMS7003;11789;53.482;9.862;2023-04-25T08:05:16;1.00;1.00;1.00
23240;PMS7003;11789;53.482;9.862;2023-04-25T08:07:41;1.50;1.25;0.50
23240;PMS7003;11789;53.482;9.862;2023-04-25T08:10:07;1.25;1.00;0.00
23240;PMS7003;11789;53.482;9.862;2023-04-25T08:12:33;2.50;1.25;0.50
23240;PMS7003;11789;53.482;9.862;2023-04-25T08:14:59;4.00;1.00;0.00
23240;PMS7003;11789;53.482;9.862;2023-04-25T08:17:24;2.00;2.00;1.00
23240;PMS7003;11789;53.482;9.862;2023-04-25T08:19:50;1.00;0.00;0.00
23240;PMS7003;11789;53.482;9.862;2023-04-25T08:22:15;1.00;1.00;1.00
23240;PMS7003;11789;53.482;9.862;2023-04-25T08:24:41;2.00;0.00;0.00
23240;PMS7003;11789;53.482;9.862;2023-04-25T08:27:07;1.75;0.75;0.75
23240;PMS7003;11789;53.482;9.862;2023-04-25T08:29:33;3.50;1.00;0.75
23240;PMS7003;11789;53.482;9.862;2023-04-25T08:31:59;2.75;1.25;1.00
23240;PMS7003;11789;53.482;9.862;2023-04-25T08:34:25;1.00;1.00;0.75
23240;PMS7003;11789;53.482;9.862;2023-04-25T08:36:51;3.50;1.00;0.00
23240;PMS7003;11789;53.482;9.862;2023-04-25T08:39:17;2.00;1.00;1.00
23240;PMS7003;11789;53.482;9.862;2023-04-25T08:41:43;2.25;1.00;0.00
23240;PMS7003;11789;53.482;9.862;2023-04-25T08:44:10;2.00;0.00;0.00
23240;PMS7003;11789;53.482;9.862;2023-04-25T08:46:37;3.75;1.00;0.00
23240;PMS7003;11789;53.482;9.862;2023-04-25T08:49:05;1.00;1.00;0.00
23240;PMS7003;11789;53.482;9.862;2023-04-25T08:51:32;2.00;2.00;1.00
23240;PMS7003;11789;53.482;9.862;2023-04-25T08:54:08;0.75;0.75;0.00
23240;PMS7003;11789;53.482;9.862;2023-04-25T08:56:41;3.00;2.00;1.25
23240;PMS7003;11789;53.482;9.862;2023-04-25T08:59:10;1.00;1.00;0.75
23240;PMS7003;11789;53.482;9.862;2023-04-25T09:01:36;3.00;1.00;1.00
23240;PMS7003;11789;53.482;9.862;2023-04-25T09:04:02;1.00;1.00;0.00
23240;PMS7003;11789;53.482;9.862;2023-04-25T09:06:31;1.00;1.00;0.25
23240;PMS7003;11789;53.482;9.862;2023-04-25T09:09:04;2.25;1.00;0.00
23240;PMS7003;11789;53.482;9.862;2023-04-25T09:11:30;2.50;1.50;0.00
23240;PMS7003;11789;53.482;9.862;2023-04-25T09:14:12;2.00;0.25;0.00
23240;PMS7003;11789;53.482;9.862;2023-04-25T09:19:21;1.75;1.00;0.00
23240;PMS7003;11789;53.482;9.862;2023-04-25T09:21:50;0.00;0.00;0.00
23240;PMS7003;11789;53.482;9.862;2023-04-25T09:26:57;2.00;0.50;0.00
23240;PMS7003;11789;53.482;9.862;2023-04-25T09:29:30;1.00;1.00;0.00
23240;PMS7003;11789;53.482;9.862;2023-04-25T09:32:19;1.50;1.00;1.00
23240;PMS7003;11789;53.482;9.862;2023-04-25T09:34:47;0.50;0.50;0.00
23240;PMS7003;11789;53.482;9.862;2023-04-25T09:37:20;1.00;1.00;1.00
23240;PMS7003;11789;53.482;9.862;2023-04-25T09:39:48;2.50;1.00;0.25
23240;PMS7003;11789;53.482;9.862;2023-04-25T09:42:23;3.75;1.75;1.00
23240;PMS7003;11789;53.482;9.862;2023-04-25T09:44:52;5.50;2.75;1.00
23240;PMS7003;11789;53.482;9.862;2023-04-25T09:47:22;1.00;1.00;1.00
23240;PMS7003;11789;53.482;9.862;2023-04-25T09:49:53;0.75;0.75;0.00
23240;PMS7003;11789;53.482;9.862;2023-04-25T09:52:20;1.75;1.75;1.00
23240;PMS7003;11789;53.482;9.862;2023-04-25T09:54:48;0.75;0.75;0.00
23240;PMS7003;11789;53.482;9.862;2023-04-25T09:57:15;1.50;1.00;0.00
23240;PMS7003;11789;53.482;9.862;2023-04-25T09:59:49;3.00;1.75;0.75
23240;PMS7003;11789;53.482;9.862;2023-04-25T10:02:19;2.25;1.00;0.75
23240;PMS7003;11789;53.482;9.862;2023-04-25T10:04:47;5.00;1.00;1.00
23240;PMS7003;11789;53.482;9.862;2023-04-25T10:07:14;1.00;1.00;1.00
23240;PMS7003;11789;53.482;9.862;2023-04-25T10:09:40;3.50;1.00;0.25
23240;PMS7003;11789;53.482;9.862;2023-04-25T10:12:07;3.50;1.25;1.00
23240;PMS7003;11789;53.482;9.862;2023-04-25T10:14:34;1.00;1.00;1.00
23240;PMS7003;11789;53.482;9.862;2023-04-25T10:17:00;2.00;0.25;0.00
23240;PMS7003;11789;53.482;9.862;2023-04-25T10:19:27;1.75;1.00;0.50
23240;PMS7003;11789;53.482;9.862;2023-04-25T10:21:56;2.00;1.00;1.00
23240;PMS7003;11789;53.482;9.862;2023-04-25T10:24:28;6.00;1.75;1.00
23240;PMS7003;11789;53.482;9.862;2023-04-25T10:26:54;1.00;1.00;0.25
23240;PMS7003;11789;53.482;9.862;2023-04-25T10:29:22;2.25;2.00;1.00
23240;PMS7003;11789;53.482;9.862;2023-04-25T10:31:51;3.00;1.00;1.00
23240;PMS7003;11789;53.482;9.862;2023-04-25T10:34:17;4.50;1.00;1.00
23240;PMS7003;11789;53.482;9.862;2023-04-25T10:36:43;2.00;0.25;0.00
23240;PMS7003;11789;53.482;9.862;2023-04-25T10:39:15;0.25;0.25;0.00
23240;PMS7003;11789;53.482;9.862;2023-04-25T10:41:55;0.00;0.00;0.00
23240;PMS7003;11789;53.482;9.862;2023-04-25T10:44:22;0.50;0.50;0.00
23240;PMS7003;11789;53.482;9.862;2023-04-25T10:46:48;0.25;0.25;0.00
23240;PMS7003;11789;53.482;9.862;2023-04-25T10:49:29;0.25;0.25;0.00
23240;PMS7003;11789;53.482;9.862;2023-04-25T10:52:18;3.00;1.00;1.00
23240;PMS7003;11789;53.482;9.862;2023-04-25T10:54:51;3.00;1.00;0.50
23240;PMS7003;11789;53.482;9.862;2023-04-25T10:57:32;1.00;1.00;0.50
23240;PMS7003;11789;53.482;9.862;2023-04-25T11:00:19;1.50;1.00;0.00
23240;PMS7003;11789;53.482;9.862;2023-04-25T11:02:47;0.00;0.00;0.00
23240;PMS7003;11789;53.482;9.862;2023-04-25T11:07:52;0.00;0.00;0.00
23240;PMS7003;11789;53.482;9.862;2023-04-25T11:10:29;0.00;0.00;0.00
23240;PMS7003;11789;53.482;9.862;2023-04-25T11:12:56;1.75;0.50;0.25
23240;PMS7003;11789;53.482;9.862;2023-04-25T11:15:22;2.00;0.00;0.00
23240;PMS7003;11789;53.482;9.862;2023-04-25T11:17:47;2.25;1.75;1.00
23240;PMS7003;11789;53.482;9.862;2023-04-25T11:20:13;2.00;0.00;0.00
23240;PMS7003;11789;53.482;9.862;2023-04-25T11:22:40;0.25;0.25;0.00
23240;PMS7003;11789;53.482;9.862;2023-04-25T11:25:07;2.00;1.75;1.00
23240;PMS7003;11789;53.482;9.862;2023-04-25T11:27:33;1.00;1.00;0.00
23240;PMS7003;11789;53.482;9.862;2023-04-25T11:30:21;1.25;1.00;0.25
23240;PMS7003;11789;53.482;9.862;2023-04-25T11:32:46;1.00;1.00;0.00
23240;PMS7003;11789;53.482;9.862;2023-04-25T11:35:12;0.50;0.50;0.50
23240;PMS7003;11789;53.482;9.862;2023-04-25T11:37:38;0.25;0.25;0.00
23240;PMS7003;11789;53.482;9.862;2023-04-25T11:40:05;2.25;2.25;1.00
23240;PMS7003;11789;53.482;9.862;2023-04-25T11:42:32;1.00;1.00;0.00
23240;PMS7003;11789;53.482;9.862;2023-04-25T11:44:58;0.25;0.00;0.00
23240;PMS7003;11789;53.482;9.862;2023-04-25T11:47:31;0.00;0.00;0.00
23240;PMS7003;11789;53.482;9.862;2023-04-25T11:49:58;0.00;0.00;0.00
23240;PMS7003;11789;53.482;9.862;2023-04-25T11:52:34;3.50;3.00;2.00
23240;PMS7003;11789;53.482;9.862;2023-04-25T11:55:15;3.75;3.75;3.00
23240;PMS7003;11789;53.482;9.862;2023-04-25T11:57:43;2.50;2.50;2.50
23240;PMS7003;11789;53.482;9.862;2023-04-25T12:00:14;8.00;7.00;4.75
23240;PMS7003;11789;53.482;9.862;2023-04-25T12:02:59;3.50;3.50;3.00
23240;PMS7003;11789;53.482;9.862;2023-04-25T12:05:28;1.75;1.75;1.75
23240;PMS7003;11789;53.482;9.862;2023-04-25T12:07:55;0.00;0.00;0.00
23240;PMS7003;11789;53.482;9.862;2023-04-25T12:10:21;2.00;1.00;0.00
23240;PMS7003;11789;53.482;9.862;2023-04-25T12:12:50;2.50;1.00;1.00
23240;PMS7003;11789;53.482;9.862;2023-04-25T12:15:16;2.00;2.00;1.00
23240;PMS7003;11789;53.482;9.862;2023-04-25T12:17:46;6.00;5.00;4.00
23240;PMS7003;11789;53.482;9.862;2023-04-25T12:20:14;4.00;2.00;2.00
23240;PMS7003;11789;53.482;9.862;2023-04-25T12:22:41;1.25;1.25;1.00
23240;PMS7003;11789;53.482;9.862;2023-04-25T12:25:14;2.00;2.00;1.00
23240;PMS7003;11789;53.482;9.862;2023-04-25T12:28:10;1.00;1.00;0.00
23240;PMS7003;11789;53.482;9.862;2023-04-25T12:33:41;3.00;1.25;1.00
23240;PMS7003;11789;53.482;9.862;2023-04-25T12:36:07;0.00;0.00;0.00
23240;PMS7003;11789;53.482;9.862;2023-04-25T12:38:37;0.25;0.25;0.00
23240;PMS7003;11789;53.482;9.862;2023-04-25T12:41:04;3.00;0.75;0.00
23240;PMS7003;11789;53.482;9.862;2023-04-25T12:43:30;1.00;1.00;0.00
23240;PMS7003;11789;53.482;9.862;2023-04-25T12:45:55;0.50;0.50;0.00
23240;PMS7003;11789;53.482;9.862;2023-04-25T12:48:21;0.00;0.00;0.00
23240;PMS7003;11789;53.482;9.862;2023-04-25T12:50:47;2.50;1.00;0.00
23240;PMS7003;11789;53.482;9.862;2023-04-25T12:53:14;0.00;0.00;0.00
23240;PMS7003;11789;53.482;9.862;2023-04-25T12:55:41;3.00;1.00;0.75
23240;PMS7003;11789;53.482;9.862;2023-04-25T12:58:07;4.00;0.50;0.00
23240;PMS7003;11789;53.482;9.862;2023-04-25T13:00:32;1.75;0.25;0.00
23240;PMS7003;11789;53.482;9.862;2023-04-25T13:02:58;1.00;1.00;1.00
23240;PMS7003;11789;53.482;9.862;2023-04-25T13:05:24;3.00;1.00;1.00
23240;PMS7003;11789;53.482;9.862;2023-04-25T13:07:50;2.00;2.00;1.00
23240;PMS7003;11789;53.482;9.862;2023-04-25T13:10:16;3.00;2.00;1.00
23240;PMS7003;11789;53.482;9.862;2023-04-25T13:12:46;1.00;1.00;0.00
23240;PMS7003;11789;53.482;9.862;2023-04-25T13:15:11;1.00;1.00;0.25
23240;PMS7003;11789;53.482;9.862;2023-04-25T13:17:37;3.00;1.00;0.75
23240;PMS7003;11789;53.482;9.862;2023-04-25T13:20:04;6.75;3.25;2.00
23240;PMS7003;11789;53.482;9.862;2023-04-25T13:22:33;1.00;1.00;1.00
23240;PMS7003;11789;53.482;9.862;2023-04-25T13:25:01;0.25;0.25;0.00
23240;PMS7003;11789;53.482;9.862;2023-04-25T13:27:27;2.00;1.00;0.25
23240;PMS7003;11789;53.482;9.862;2023-04-25T13:29:52;1.00;1.00;1.00
23240;PMS7003;11789;53.482;9.862;2023-04-25T13:32:18;1.00;0.00;0.00
23240;PMS7003;11789;53.482;9.862;2023-04-25T13:34:43;0.50;0.50;0.50
23240;PMS7003;11789;53.482;9.862;2023-04-25T13:37:09;3.25;2.00;1.00
23240;PMS7003;11789;53.482;9.862;2023-04-25T13:39:35;1.25;1.25;1.00
23240;PMS7003;11789;53.482;9.862;2023-04-25T13:42:01;3.00;1.25;1.00
23240;PMS7003;11789;53.482;9.862;2023-04-25T13:44:27;2.25;2.25;1.75
23240;PMS7003;11789;53.482;9.862;2023-04-25T13:46:52;1.00;1.00;1.00
23240;PMS7003;11789;53.482;9.862;2023-04-25T13:49:18;2.00;2.00;1.00
23240;PMS7003;11789;53.482;9.862;2023-04-25T13:51:43;6.00;4.00;3.00
23240;PMS7003;11789;53.482;9.862;2023-04-25T13:54:09;5.00;5.00;4.50
23240;PMS7003;11789;53.482;9.862;2023-04-25T13:56:34;5.00;2.00;2.00
23240;PMS7003;11789;53.482;9.862;2023-04-25T13:59:09;2.00;2.00;2.00
23240;PMS7003;11789;53.482;9.862;2023-04-25T14:01:35;1.75;1.75;1.00
23240;PMS7003;11789;53.482;9.862;2023-04-25T14:04:01;3.00;2.00;1.25
23240;PMS7003;11789;53.482;9.862;2023-04-25T14:06:28;1.00;1.00;1.00
23240;PMS7003;11789;53.482;9.862;2023-04-25T14:08:54;6.00;5.00;4.00
23240;PMS7003;11789;53.482;9.862;2023-04-25T14:11:20;7.00;5.00;5.00
23240;PMS7003;11789;53.482;9.862;2023-04-25T14:13:46;7.25;2.00;1.00
23240;PMS7003;11789;53.482;9.862;2023-04-25T14:16:13;3.50;2.00;1.50
23240;PMS7003;11789;53.482;9.862;2023-04-25T14:18:38;7.50;3.00;2.00
23240;PMS7003;11789;53.482;9.862;2023-04-25T14:21:03;2.50;1.75;1.50
23240;PMS7003;11789;53.482;9.862;2023-04-25T14:23:30;3.00;3.00;2.00
23240;PMS7003;11789;53.482;9.862;2023-04-25T14:25:55;3.00;3.00;2.00
23240;PMS7003;11789;53.482;9.862;2023-04-25T14:28:21;1.75;1.75;1.00
23240;PMS7003;11789;53.482;9.862;2023-04-25T14:30:46;3.75;1.00;1.00